sensor_id;sensor_type;location;lat;lon;timestamp;pressure;altitude;pressure_sealevel;temperature;humidity
75933;BME280;64803;52.356;5.310;2023-08-21T00:01:47;102396.63;;;14.46;100.00
75933;BME280;64803;52.356;5.310;2023-08-21T00:04:13;102390.72;;;14.51;100.00
75933;BME280;64803;52.356;5.310;2023-08-21T00:06:39;102391.91;;;14.48;100.00
75933;BME280;64803;52.356;5.310;2023-08-21T00:09:05;102388.53;;;14.46;100.00
75933;BME280;64803;52.356;5.310;2023-08-21T00:11:31;102385.47;;;14.41;100.00
75933;BME280;64803;52.356;5.310;2023-08-21T00:13:57;102386.81;;;14.29;100.00
75933;BME280;64803;52.356;5.310;2023-08-21T00:16:23;102395.84;;;14.20;100.00
75933;BME280;64803;52.356;5.310;2023-08-21T00:18:49;102396.72;;;14.21;100.00
75933;BME280;64803;52.356;5.310;2023-08-21T00:21:15;102384.34;;;14.18;100.00
75933;BME280;64803;52.356;5.310;2023-08-21T00:23:41;102386.72;;;14.13;100.00
75933;BME280;64803;52.356;5.310;2023-08-21T00:26:07;102379.94;;;14.09;100.00
75933;BME280;64803;52.356;5.310;2023-08-21T00:28:33;102388.84;;;14.02;100.00
75933;BME280;64803;52.356;5.310;2023-08-21T00:31:05;102387.34;;;14.07;100.00
75933;BME280;64803;52.356;5.310;2023-08-21T00:33:32;102387.03;;;14.10;100.00
75933;BME280;64803;52.356;5.310;2023-08-21T00:35:58;102375.56;;;14.16;100.00
75933;BME280;64803;52.356;5.310;2023-08-21T00:38:24;102377.94;;;14.19;100.00
75933;BME280;64803;52.356;5.310;2023-08-21T00:40:51;102362.75;;;14.18;100.00
75933;BME280;64803;52.356;5.310;2023-08-21T00:43:17;102369.00;;;14.19;100.00
75933;BME280;64803;52.356;5.310;2023-08-21T00:45:44;102378.41;;;14.07;100.00
75933;BME280;64803;52.356;5.310;2023-08-21T00:48:11;102378.88;;;14.02;100.00
75933;BME280;64803;52.356;5.310;2023-08-21T00:50:41;102374.34;;;14.03;100.00
75933;BME280;64803;52.356;5.310;2023-08-21T00:53:07;102379.41;;;14.06;100.00
75933;BME280;64803;52.356;5.310;2023-08-21T00:55:33;102378.72;;;14.04;100.00
75933;BME280;64803;52.356;5.310;2023-08-21T00:58:01;102381.75;;;14.01;100.00
75933;BME280;64803;52.356;5.310;2023-08-21T01:00:29;102380.22;;;13.98;100.00
75933;BME280;64803;52.356;5.310;2023-08-21T01:02:56;102383.13;;;14.05;100.00
75933;BME280;64803;52.356;5.310;2023-08-21T01:05:23;102377.91;;;14.11;100.00
75933;BME280;64803;52.356;5.310;2023-08-21T01:08:29;102370.31;;;14.15;100.00
75933;BME280;64803;52.356;5.310;2023-08-21T01:11:02;102377.78;;;14.21;100.00
75933;BME280;64803;52.356;5.310;2023-08-21T01:16:13;102380.44;;;14.13;100.00
75933;BME280;64803;52.356;5.310;2023-08-21T01:18:40;102387.88;;;14.11;100.00
75933;BME280;64803;52.356;5.310;2023-08-21T01:21:07;102390.38;;;14.04;100.00
75933;BME280;64803;52.356;5.310;2023-08-21T01:23:34;102392.06;;;14.05;100.00
75933;BME280;64803;52.356;5.310;2023-08-21T01:26:01;102394.75;;;14.05;100.00
75933;BME280;64803;52.356;5.310;2023-08-21T01:28:31;102395.81;;;14.12;100.00
75933;BME280;64803;52.356;5.310;2023-08-21T01:31:07;102399.88;;;14.08;100.00
75933;BME280;64803;52.356;5.310;2023-08-21T01:33:40;102401.47;;;13.93;100.00
75933;BME280;64803;52.356;5.310;2023-08-21T01:36:08;102409.38;;;13.87;100.00
75933;BME280;64803;52.356;5.310;2023-08-21T01:38:34;102401.94;;;13.81;100.00
75933;BME280;64803;52.356;5.310;2023-08-21T01:41:02;102413.53;;;13.73;100.00
75933;BME280;64803;52.356;5.310;2023-08-21T01:43:28;102399.19;;;13.73;100.00
75933;BME280;64803;52.356;5.310;2023-08-21T01:45:54;102413.78;;;13.88;100.00
75933;BME280;64803;52.356;5.310;2023-08-21T01:48:21;102409.28;;;13.96;100.00
75933;BME280;64803;52.356;5.310;2023-08-21T01:50:47;102404.22;;;14.01;100.00
75933;BME280;64803;52.356;5.310;2023-08-21T01:53:13;102406.94;;;14.09;100.00
75933;BME280;64803;52.356;5.310;2023-08-21T01:55:38;102413.91;;;14.12;100.00
75933;BME280;64803;52.356;5.310;2023-08-21T01:58:05;102408.66;;;14.10;100.00
75933;BME280;64803;52.356;5.310;2023-08-21T02:00:30;102414.69;;;13.96;100.00
75933;BME280;64803;52.356;5.310;2023-08-21T02:02:56;102416.50;;;13.88;100.00
75933;BME280;64803;52.356;5.310;2023-08-21T02:05:22;102409.56;;;13.93;100.00
75933;BME280;64803;52.356;5.310;2023-08-21T02:07:48;102406.88;;;13.93;100.00
75933;BME280;64803;52.356;5.310;2023-08-21T02:10:14;102407.88;;;13.84;100.00
75933;BME280;64803;52.356;5.310;2023-08-21T02:12:40;102414.22;;;13.75;100.00
75933;BME280;64803;52.356;5.310;2023-08-21T02:15:07;102400.34;;;13.44;100.00
75933;BME280;64803;52.356;5.310;2023-08-21T02:17:33;102427.41;;;13.52;100.00
75933;BME280;64803;52.356;5.310;2023-08-21T02:19:59;102422.84;;;13.53;100.00
75933;BME280;64803;52.356;5.310;2023-08-21T02:22:25;102418.13;;;13.81;100.00
75933;BME280;64803;52.356;5.310;2023-08-21T02:24:51;102416.00;;;13.92;100.00
75933;BME280;64803;52.356;5.310;2023-08-21T02:27:18;102401.53;;;14.01;100.00
75933;BME280;64803;52.356;5.310;2023-08-21T02:29:44;102410.44;;;14.02;100.00
75933;BME280;64803;52.356;5.310;2023-08-21T02:32:10;102410.94;;;13.97;100.00
75933;BME280;64803;52.356;5.310;2023-08-21T02:34:36;102413.78;;;13.88;100.00
75933;BME280;64803;52.356;5.310;2023-08-21T02:37:02;102425.03;;;13.75;100.00
75933;BME280;64803;52.356;5.310;2023-08-21T02:39:28;102427.66;;;13.67;100.00
75933;BME280;64803;52.356;5.310;2023-08-21T02:41:54;102423.81;;;13.70;100.00
75933;BME280;64803;52.356;5.310;2023-08-21T02:44:20;102428.50;;;13.68;100.00
75933;BME280;64803;52.356;5.310;2023-08-21T02:46:47;102423.31;;;13.74;100.00
75933;BME280;64803;52.356;5.310;2023-08-21T02:49:13;102441.59;;;13.80;100.00
75933;BME280;64803;52.356;5.310;2023-08-21T02:51:39;102443.09;;;13.83;100.00
75933;BME280;64803;52.356;5.310;2023-08-21T02:54:05;102445.97;;;13.81;100.00
75933;BME280;64803;52.356;5.310;2023-08-21T02:56:32;102443.28;;;13.81;100.00
75933;BME280;64803;52.356;5.310;2023-08-21T02:58:58;102436.53;;;13.77;100.00
75933;BME280;64803;52.356;5.310;2023-08-21T03:01:24;102437.50;;;13.76;100.00
75933;BME280;64803;52.356;5.310;2023-08-21T03:03:50;102441.66;;;13.63;100.00
75933;BME280;64803;52.356;5.310;2023-08-21T03:06:16;102441.44;;;13.56;100.00
75933;BME280;64803;52.356;5.310;2023-08-21T03:08:43;102439.38;;;13.50;100.00
75933;BME280;64803;52.356;5.310;2023-08-21T03:11:10;102435.44;;;13.44;100.00
75933;BME280;64803;52.356;5.310;2023-08-21T03:13:39;102444.19;;;13.38;100.00
75933;BME280;64803;52.356;5.310;2023-08-21T03:16:05;102438.88;;;13.29;100.00
75933;BME280;64803;52.356;5.310;2023-08-21T03:18:32;102440.88;;;13.27;100.00
75933;BME280;64803;52.356;5.310;2023-08-21T03:20:58;102426.72;;;13.25;100.00
75933;BME280;64803;52.356;5.310;2023-08-21T03:23:24;102439.56;;;13.31;100.00
75933;BME280;64803;52.356;5.310;2023-08-21T03:25:53;102442.25;;;13.31;100.00
75933;BME280;64803;52.356;5.310;2023-08-21T03:28:19;102438.69;;;13.30;100.00
75933;BME280;64803;52.356;5.310;2023-08-21T03:30:45;102439.88;;;13.28;100.00
75933;BME280;64803;52.356;5.310;2023-08-21T03:33:11;102433.56;;;13.19;100.00
75933;BME280;64803;52.356;5.310;2023-08-21T03:35:38;102439.69;;;13.04;100.00
75933;BME280;64803;52.356;5.310;2023-08-21T03:38:04;102440.72;;;12.93;100.00
75933;BME280;64803;52.356;5.310;2023-08-21T03:40:39;102443.50;;;12.84;100.00
75933;BME280;64803;52.356;5.310;2023-08-21T03:43:05;102440.88;;;12.74;100.00
75933;BME280;64803;52.356;5.310;2023-08-21T03:45:31;102438.09;;;12.66;100.00
75933;BME280;64803;52.356;5.310;2023-08-21T03:47:57;102433.47;;;12.59;100.00
75933;BME280;64803;52.356;5.310;2023-08-21T03:50:23;102433.47;;;12.59;100.00
75933;BME280;64803;52.356;5.310;2023-08-21T03:52:49;102430.50;;;12.79;100.00
75933;BME280;64803;52.356;5.310;2023-08-21T03:55:15;102427.00;;;12.87;100.00
75933;BME280;64803;52.356;5.310;2023-08-21T03:57:42;102427.00;;;12.87;100.00
75933;BME280;64803;52.356;5.310;2023-08-21T04:00:08;102431.56;;;12.86;100.00
75933;BME280;64803;52.356;5.310;2023-08-21T04:02:41;102435.72;;;12.81;100.00
75933;BME280;64803;52.356;5.310;2023-08-21T04:05:07;102442.09;;;12.80;100.00
75933;BME280;64803;52.356;5.310;2023-08-21T04:07:33;102436.97;;;12.86;100.00
75933;BME280;64803;52.356;5.310;2023-08-21T04:10:00;102430.56;;;12.87;100.00
75933;BME280;64803;52.356;5.310;2023-08-21T04:12:26;102437.88;;;12.95;100.00
75933;BME280;64803;52.356;5.310;2023-08-21T04:14:52;102438.84;;;12.94;100.00
75933;BME280;64803;52.356;5.310;2023-08-21T04:17:22;102444.94;;;12.96;100.00
75933;BME280;64803;52.356;5.310;2023-08-21T04:19:48;102442.25;;;12.96;100.00
75933;BME280;64803;52.356;5.310;2023-08-21T04:22:17;102444.19;;;12.86;100.00
75933;BME280;64803;52.356;5.310;2023-08-21T04:24:43;102444.66;;;12.81;100.00
75933;BME280;64803;52.356;5.310;2023-08-21T04:27:09;102449.50;;;12.78;100.00
75933;BME280;64803;52.356;5.310;2023-08-21T04:29:35;102453.50;;;12.74;100.00
75933;BME280;64803;52.356;5.310;2023-08-21T04:32:01;102454.22;;;12.76;100.00
75933;BME280;64803;52.356;5.310;2023-08-21T04:34:28;102451.19;;;12.79;100.00
75933;BME280;64803;52.356;5.310;2023-08-21T04:36:54;102451.19;;;12.79;100.00
75933;BME280;64803;52.356;5.310;2023-08-21T04:39:20;102452.59;;;12.83;100.00
75933;BME280;64803;52.356;5.310;2023-08-21T04:41:46;102447.38;;;12.81;100.00
75933;BME280;64803;52.356;5.310;2023-08-21T04:44:13;102440.72;;;12.76;100.00
75933;BME280;64803;52.356;5.310;2023-08-21T04:46:39;102449.50;;;12.78;100.00
75933;BME280;64803;52.356;5.310;2023-08-21T04:49:05;102448.88;;;12.84;100.00
75933;BME280;64803;52.356;5.310;2023-08-21T04:51:31;102445.81;;;12.79;100.00
75933;BME280;64803;52.356;5.310;2023-08-21T04:54:00;102447.66;;;12.78;100.00
75933;BME280;64803;52.356;5.310;2023-08-21T04:56:26;102446.34;;;12.82;100.00
75933;BME280;64803;52.356;5.310;2023-08-21T04:58:53;102447.19;;;12.83;100.00
75933;BME280;64803;52.356;5.310;2023-08-21T05:01:19;102447.91;;;12.85;100.00
75933;BME280;64803;52.356;5.310;2023-08-21T05:03:48;102456.00;;;12.85;100.00
75933;BME280;64803;52.356;5.310;2023-08-21T05:06:14;102458.28;;;12.80;100.00
75933;BME280;64803;52.356;5.310;2023-08-21T05:08:41;102458.19;;;12.72;100.00
75933;BME280;64803;52.356;5.310;2023-08-21T05:11:08;102468.81;;;12.73;100.00
75933;BME280;64803;52.356;5.310;2023-08-21T05:13:36;102442.19;;;12.70;100.00
75933;BME280;64803;52.356;5.310;2023-08-21T05:16:04;102453.97;;;12.87;100.00
75933;BME280;64803;52.356;5.310;2023-08-21T05:18:35;102454.59;;;12.98;100.00
75933;BME280;64803;52.356;5.310;2023-08-21T05:21:01;102456.25;;;13.09;100.00
75933;BME280;64803;52.356;5.310;2023-08-21T05:23:28;102456.31;;;13.17;100.00
75933;BME280;64803;52.356;5.310;2023-08-21T05:25:59;102459.75;;;13.27;100.00
75933;BME280;64803;52.356;5.310;2023-08-21T05:28:25;102454.13;;;13.38;100.00
75933;BME280;64803;52.356;5.310;2023-08-21T05:30:51;102457.41;;;13.49;100.00
75933;BME280;64803;52.356;5.310;2023-08-21T05:33:18;102443.44;;;13.54;100.00
75933;BME280;64803;52.356;5.310;2023-08-21T05:35:46;102456.72;;;13.73;100.00
75933;BME280;64803;52.356;5.310;2023-08-21T05:38:12;102455.28;;;13.87;100.00
75933;BME280;64803;52.356;5.310;2023-08-21T05:40:40;102443.38;;;14.05;100.00
75933;BME280;64803;52.356;5.310;2023-08-21T05:43:08;102443.81;;;14.18;100.00
75933;BME280;64803;52.356;5.310;2023-08-21T05:45:36;102440.34;;;14.26;100.00
75933;BME280;64803;52.356;5.310;2023-08-21T05:48:02;102445.94;;;14.40;100.00
75933;BME280;64803;52.356;5.310;2023-08-21T05:50:29;102447.66;;;14.49;100.00
75933;BME280;64803;52.356;5.310;2023-08-21T05:52:55;102444.84;;;14.67;100.00
75933;BME280;64803;52.356;5.310;2023-08-21T05:55:23;102450.44;;;14.82;100.00
75933;BME280;64803;52.356;5.310;2023-08-21T05:57:50;102450.63;;;14.96;100.00
75933;BME280;64803;52.356;5.310;2023-08-21T06:00:18;102443.38;;;15.13;100.00
75933;BME280;64803;52.356;5.310;2023-08-21T06:02:44;102446.75;;;15.23;100.00
75933;BME280;64803;52.356;5.310;2023-08-21T06:05:19;102449.81;;;15.36;100.00
75933;BME280;64803;52.356;5.310;2023-08-21T06:07:49;102448.63;;;15.46;100.00
75933;BME280;64803;52.356;5.310;2023-08-21T06:10:16;102446.44;;;15.58;100.00
75933;BME280;64803;52.356;5.310;2023-08-21T06:12:43;102449.97;;;15.66;100.00
75933;BME280;64803;52.356;5.310;2023-08-21T06:15:09;102452.00;;;15.72;100.00
75933;BME280;64803;52.356;5.310;2023-08-21T06:17:38;102445.69;;;15.80;100.00
75933;BME280;64803;52.356;5.310;2023-08-21T06:20:05;102449.03;;;15.90;100.00
75933;BME280;64803;52.356;5.310;2023-08-21T06:22:35;102431.56;;;16.01;100.00
75933;BME280;64803;52.356;5.310;2023-08-21T06:25:01;102435.59;;;16.13;100.00
75933;BME280;64803;52.356;5.310;2023-08-21T06:27:28;102440.44;;;16.25;100.00
75933;BME280;64803;52.356;5.310;2023-08-21T06:29:54;102430.72;;;16.39;100.00
75933;BME280;64803;52.356;5.310;2023-08-21T06:32:20;102439.34;;;16.50;100.00
75933;BME280;64803;52.356;5.310;2023-08-21T06:34:46;102435.59;;;16.59;100.00
75933;BME280;64803;52.356;5.310;2023-08-21T06:37:12;102437.19;;;16.68;100.00
75933;BME280;64803;52.356;5.310;2023-08-21T06:39:38;102436.13;;;16.77;100.00
75933;BME280;64803;52.356;5.310;2023-08-21T06:42:04;102430.28;;;16.88;100.00
75933;BME280;64803;52.356;5.310;2023-08-21T06:44:38;102432.22;;;17.03;100.00
75933;BME280;64803;52.356;5.310;2023-08-21T06:47:04;102424.91;;;17.26;100.00
75933;BME280;64803;52.356;5.310;2023-08-21T06:49:31;102426.06;;;17.46;100.00
75933;BME280;64803;52.356;5.310;2023-08-21T06:51:57;102420.50;;;17.62;100.00
75933;BME280;64803;52.356;5.310;2023-08-21T06:54:23;102413.59;;;17.74;100.00
75933;BME280;64803;52.356;5.310;2023-08-21T06:56:49;102424.19;;;17.83;100.00
75933;BME280;64803;52.356;5.310;2023-08-21T06:59:15;102414.69;;;17.94;100.00
75933;BME280;64803;52.356;5.310;2023-08-21T07:01:41;102420.72;;;18.04;100.00
75933;BME280;64803;52.356;5.310;2023-08-21T07:04:07;102409.34;;;18.15;100.00
75933;BME280;64803;52.356;5.310;2023-08-21T07:06:33;102413.44;;;18.26;100.00
75933;BME280;64803;52.356;5.310;2023-08-21T07:08:59;102415.63;;;18.30;100.00
75933;BME280;64803;52.356;5.310;2023-08-21T07:11:25;102411.47;;;18.34;100.00
75933;BME280;64803;52.356;5.310;2023-08-21T07:13:51;102421.63;;;18.40;100.00
75933;BME280;64803;52.356;5.310;2023-08-21T07:16:17;102428.00;;;18.47;100.00
75933;BME280;64803;52.356;5.310;2023-08-21T07:18:43;102429.38;;;18.58;100.00
75933;BME280;64803;52.356;5.310;2023-08-21T07:21:09;102422.19;;;18.71;100.00
75933;BME280;64803;52.356;5.310;2023-08-21T07:23:35;102427.59;;;18.86;100.00
75933;BME280;64803;52.356;5.310;2023-08-21T07:26:05;102433.09;;;18.92;100.00
75933;BME280;64803;52.356;5.310;2023-08-21T07:28:33;102438.22;;;19.02;100.00
75933;BME280;64803;52.356;5.310;2023-08-21T07:30:59;102441.53;;;19.19;100.00
75933;BME280;64803;52.356;5.310;2023-08-21T07:33:26;102441.47;;;19.33;100.00
75933;BME280;64803;52.356;5.310;2023-08-21T07:36:05;102418.94;;;19.46;100.00
75933;BME280;64803;52.356;5.310;2023-08-21T07:38:31;102431.25;;;19.63;100.00
75933;BME280;64803;52.356;5.310;2023-08-21T07:41:05;102478.56;;;19.83;100.00
75933;BME280;64803;52.356;5.310;2023-08-21T07:43:33;102493.56;;;20.00;100.00
75933;BME280;64803;52.356;5.310;2023-08-21T07:46:04;102509.53;;;20.03;100.00
75933;BME280;64803;52.356;5.310;2023-08-21T07:48:30;102524.84;;;20.04;100.00
75933;BME280;64803;52.356;5.310;2023-08-21T07:50:57;102552.53;;;20.01;100.00
75933;BME280;64803;52.356;5.310;2023-08-21T07:53:24;102560.56;;;20.09;100.00
75933;BME280;64803;52.356;5.310;2023-08-21T07:55:50;102567.28;;;20.06;100.00
75933;BME280;64803;52.356;5.310;2023-08-21T07:58:16;102576.06;;;20.08;100.00
75933;BME280;64803;52.356;5.310;2023-08-21T08:00:42;102576.84;;;20.17;100.00
75933;BME280;64803;52.356;5.310;2023-08-21T08:03:08;102586.53;;;20.26;100.00
75933;BME280;64803;52.356;5.310;2023-08-21T08:05:34;102589.47;;;20.25;100.00
75933;BME280;64803;52.356;5.310;2023-08-21T08:08:00;102595.78;;;20.25;100.00
75933;BME280;64803;52.356;5.310;2023-08-21T08:10:26;102596.50;;;20.40;100.00
75933;BME280;64803;52.356;5.310;2023-08-21T08:12:52;102608.94;;;20.49;100.00
75933;BME280;64803;52.356;5.310;2023-08-21T08:15:20;102614.25;;;20.57;100.00
75933;BME280;64803;52.356;5.310;2023-08-21T08:17:46;102612.00;;;20.67;100.00
75933;BME280;64803;52.356;5.310;2023-08-21T08:20:13;102624.19;;;20.71;100.00
75933;BME280;64803;52.356;5.310;2023-08-21T08:22:39;102616.00;;;20.71;100.00
75933;BME280;64803;52.356;5.310;2023-08-21T08:25:06;102625.72;;;20.80;100.00
75933;BME280;64803;52.356;5.310;2023-08-21T08:27:32;102617.09;;;20.77;100.00
75933;BME280;64803;52.356;5.310;2023-08-21T08:29:58;102637.75;;;20.92;100.00
75933;BME280;64803;52.356;5.310;2023-08-21T08:32:25;102642.03;;;21.01;100.00
75933;BME280;64803;52.356;5.310;2023-08-21T08:34:54;102646.94;;;21.12;100.00
75933;BME280;64803;52.356;5.310;2023-08-21T08:37:20;102644.63;;;21.16;100.00
75933;BME280;64803;52.356;5.310;2023-08-21T08:39:47;102642.69;;;21.03;100.00
75933;BME280;64803;52.356;5.310;2023-08-21T08:42:16;102644.22;;;21.12;100.00
75933;BME280;64803;52.356;5.310;2023-08-21T08:44:43;102642.78;;;21.23;100.00
75933;BME280;64803;52.356;5.310;2023-08-21T08:47:14;102635.59;;;21.22;100.00
75933;BME280;64803;52.356;5.310;2023-08-21T08:49:41;102633.38;;;21.39;100.00
75933;BME280;64803;52.356;5.310;2023-08-21T08:52:07;102640.72;;;21.45;100.00
75933;BME280;64803;52.356;5.310;2023-08-21T08:54:33;102629.19;;;21.49;100.00
75933;BME280;64803;52.356;5.310;2023-08-21T08:57:01;102623.09;;;21.47;100.00
75933;BME280;64803;52.356;5.310;2023-08-21T08:59:31;102625.00;;;21.60;100.00
75933;BME280;64803;52.356;5.310;2023-08-21T09:01:57;102635.53;;;21.63;100.00
75933;BME280;64803;52.356;5.310;2023-08-21T09:04:23;102635.56;;;21.76;100.00
75933;BME280;64803;52.356;5.310;2023-08-21T09:06:49;102635.59;;;21.89;100.00
75933;BME280;64803;52.356;5.310;2023-08-21T09:09:15;102632.44;;;21.92;100.00
75933;BME280;64803;52.356;5.310;2023-08-21T09:11:46;102634.78;;;22.01;100.00
75933;BME280;64803;52.356;5.310;2023-08-21T09:14:13;102635.84;;;22.07;100.00
75933;BME280;64803;52.356;5.310;2023-08-21T09:16:58;102641.09;;;22.15;100.00
75933;BME280;64803;52.356;5.310;2023-08-21T09:19:24;102639.19;;;22.22;100.00
75933;BME280;64803;52.356;5.310;2023-08-21T09:21:50;102644.03;;;22.20;100.00
75933;BME280;64803;52.356;5.310;2023-08-21T09:24:17;102639.59;;;22.32;100.00
75933;BME280;64803;52.356;5.310;2023-08-21T09:26:43;102639.38;;;22.33;100.00
75933;BME280;64803;52.356;5.310;2023-08-21T09:31:36;102647.38;;;22.48;100.00
75933;BME280;64803;52.356;5.310;2023-08-21T09:34:04;102643.84;;;22.54;100.00
75933;BME280;64803;52.356;5.310;2023-08-21T09:36:33;102641.94;;;22.61;100.00
75933;BME280;64803;52.356;5.310;2023-08-21T09:39:00;102650.34;;;22.60;100.00
75933;BME280;64803;52.356;5.310;2023-08-21T09:41:26;102646.97;;;22.64;100.00
75933;BME280;64803;52.356;5.310;2023-08-21T09:43:52;102654.78;;;22.61;100.00
75933;BME280;64803;52.356;5.310;2023-08-21T09:46:25;102650.97;;;22.49;100.00
75933;BME280;64803;52.356;5.310;2023-08-21T09:48:52;102635.16;;;22.70;100.00
75933;BME280;64803;52.356;5.310;2023-08-21T09:51:19;102634.31;;;22.63;100.00
75933;BME280;64803;52.356;5.310;2023-08-21T09:53:45;102643.59;;;22.69;100.00
75933;BME280;64803;52.356;5.310;2023-08-21T09:56:12;102641.06;;;22.67;100.00
75933;BME280;64803;52.356;5.310;2023-08-21T09:58:38;102645.66;;;22.86;100.00
75933;BME280;64803;52.356;5.310;2023-08-21T10:01:05;102640.53;;;22.96;100.00
75933;BME280;64803;52.356;5.310;2023-08-21T10:03:40;102657.41;;;23.06;100.00
75933;BME280;64803;52.356;5.310;2023-08-21T10:06:09;102641.56;;;23.15;100.00
75933;BME280;64803;52.356;5.310;2023-08-21T10:08:37;102633.69;;;23.25;100.00
75933;BME280;64803;52.356;5.310;2023-08-21T10:11:07;102643.59;;;23.26;100.00
75933;BME280;64803;52.356;5.310;2023-08-21T10:13:34;102631.78;;;23.32;100.00
75933;BME280;64803;52.356;5.310;2023-08-21T10:16:02;102640.03;;;23.25;100.00
75933;BME280;64803;52.356;5.310;2023-08-21T10:18:33;102637.09;;;23.20;100.00
75933;BME280;64803;52.356;5.310;2023-08-21T10:21:15;102633.72;;;23.18;100.00
75933;BME280;64803;52.356;5.310;2023-08-21T10:23:41;102618.66;;;23.40;100.00
75933;BME280;64803;52.356;5.310;2023-08-21T10:26:10;102615.75;;;23.35;100.00
75933;BME280;64803;52.356;5.310;2023-08-21T10:31:41;102632.59;;;23.39;100.00
75933;BME280;64803;52.356;5.310;2023-08-21T10:34:10;102627.06;;;23.46;100.00
75933;BME280;64803;52.356;5.310;2023-08-21T10:39:22;102622.97;;;23.61;100.00
75933;BME280;64803;52.356;5.310;2023-08-21T10:42:05;102630.94;;;23.69;100.00
75933;BME280;64803;52.356;5.310;2023-08-21T10:49:54;102635.06;;;23.85;100.00
75933;BME280;64803;52.356;5.310;2023-08-21T10:52:30;102644.56;;;23.82;100.00
75933;BME280;64803;52.356;5.310;2023-08-21T10:55:00;102637.56;;;23.86;100.00
75933;BME280;64803;52.356;5.310;2023-08-21T10:57:27;102618.06;;;24.01;100.00
75933;BME280;64803;52.356;5.310;2023-08-21T10:59:56;102635.31;;;24.08;100.00
75933;BME280;64803;52.356;5.310;2023-08-21T11:02:23;102640.63;;;24.03;100.00
75933;BME280;64803;52.356;5.310;2023-08-21T11:04:50;102634.78;;;23.93;100.00
75933;BME280;64803;52.356;5.310;2023-08-21T11:07:16;102632.44;;;23.96;100.00
75933;BME280;64803;52.356;5.310;2023-08-21T11:09:43;102631.91;;;24.12;100.00
75933;BME280;64803;52.356;5.310;2023-08-21T11:12:14;102623.00;;;24.17;100.00
75933;BME280;64803;52.356;5.310;2023-08-21T11:14:40;102624.41;;;24.26;100.00
75933;BME280;64803;52.356;5.310;2023-08-21T11:17:07;102631.75;;;24.32;100.00
75933;BME280;64803;52.356;5.310;2023-08-21T11:19:34;102625.50;;;24.18;100.00
75933;BME280;64803;52.356;5.310;2023-08-21T11:22:01;102640.03;;;24.25;100.00
75933;BME280;64803;52.356;5.310;2023-08-21T11:27:04;102640.06;;;24.43;100.00
75933;BME280;64803;52.356;5.310;2023-08-21T11:29:41;102644.00;;;24.54;100.00
75933;BME280;64803;52.356;5.310;2023-08-21T11:32:08;102635.66;;;24.61;100.00
75933;BME280;64803;52.356;5.310;2023-08-21T11:34:35;102660.63;;;24.59;100.00
75933;BME280;64803;52.356;5.310;2023-08-21T11:37:01;102654.81;;;24.67;100.00
75933;BME280;64803;52.356;5.310;2023-08-21T11:39:39;102648.28;;;24.68;100.00
75933;BME280;64803;52.356;5.310;2023-08-21T11:42:09;102653.66;;;24.81;100.00
75933;BME280;64803;52.356;5.310;2023-08-21T11:47:12;102636.25;;;24.87;100.00
75933;BME280;64803;52.356;5.310;2023-08-21T11:49:40;102638.41;;;24.85;100.00
75933;BME280;64803;52.356;5.310;2023-08-21T11:52:13;102627.25;;;24.80;100.00
75933;BME280;64803;52.356;5.310;2023-08-21T11:54:40;102639.53;;;24.78;100.00
75933;BME280;64803;52.356;5.310;2023-08-21T11:57:13;102632.00;;;24.91;100.00
75933;BME280;64803;52.356;5.310;2023-08-21T11:59:40;102634.66;;;24.98;100.00
75933;BME280;64803;52.356;5.310;2023-08-21T12:02:24;102636.56;;;25.15;100.00
75933;BME280;64803;52.356;5.310;2023-08-21T12:05:07;102642.97;;;25.09;100.00
75933;BME280;64803;52.356;5.310;2023-08-21T12:07:39;102648.22;;;25.11;100.00
75933;BME280;64803;52.356;5.310;2023-08-21T12:10:05;102646.94;;;25.13;100.00
75933;BME280;64803;52.356;5.310;2023-08-21T12:12:31;102640.69;;;25.24;100.00
75933;BME280;64803;52.356;5.310;2023-08-21T12:14:57;102641.72;;;25.23;100.00
75933;BME280;64803;52.356;5.310;2023-08-21T12:17:23;102652.19;;;25.33;100.00
75933;BME280;64803;52.356;5.310;2023-08-21T12:19:49;102642.78;;;25.40;100.00
75933;BME280;64803;52.356;5.310;2023-08-21T12:22:16;102637.28;;;25.40;100.00
75933;BME280;64803;52.356;5.310;2023-08-21T12:24:42;102622.47;;;25.41;100.00
75933;BME280;64803;52.356;5.310;2023-08-21T12:27:08;102625.50;;;25.33;100.00
75933;BME280;64803;52.356;5.310;2023-08-21T12:29:34;102618.47;;;25.55;100.00
75933;BME280;64803;52.356;5.310;2023-08-21T12:32:00;102620.88;;;25.64;100.00
75933;BME280;64803;52.356;5.310;2023-08-21T12:34:26;102608.19;;;25.63;100.00
75933;BME280;64803;52.356;5.310;2023-08-21T12:36:52;102616.59;;;25.68;100.00
75933;BME280;64803;52.356;5.310;2023-08-21T12:39:18;102613.97;;;25.73;100.00
75933;BME280;64803;52.356;5.310;2023-08-21T12:41:45;102635.72;;;25.63;100.00
75933;BME280;64803;52.356;5.310;2023-08-21T12:44:11;102625.84;;;25.43;100.00
75933;BME280;64803;52.356;5.310;2023-08-21T12:46:38;102624.22;;;25.54;100.00
75933;BME280;64803;52.356;5.310;2023-08-21T12:49:03;102628.28;;;25.63;100.00
75933;BME280;64803;52.356;5.310;2023-08-21T12:51:30;102618.50;;;25.79;100.00
75933;BME280;64803;52.356;5.310;2023-08-21T12:53:56;102625.72;;;25.80;100.00
75933;BME280;64803;52.356;5.310;2023-08-21T12:56:22;102621.69;;;25.94;100.00
75933;BME280;64803;52.356;5.310;2023-08-21T12:58:48;102616.72;;;26.37;100.00
75933;BME280;64803;52.356;5.310;2023-08-21T13:01:14;102624.63;;;26.22;100.00
75933;BME280;64803;52.356;5.310;2023-08-21T13:03:46;102616.84;;;26.30;100.00